wehoville.com alexa rank chart, wehoville.com alexa rank daily changes

wehoville.com alexa rank chart, wehoville.com alexa rank daily changes

wehoville.com
Actual rank:
237 901

RANK HISTORY

Date Rank Diff
2017/09/20 237 901 +16 464
2017/09/19 221 437 +1 904
2017/09/18 219 533 -7 032
2017/09/17 226 565 +19 621
2017/09/16 206 944 +5 287
2017/09/15 201 657 +8 767
2017/09/14 192 890 +5 301
2017/09/13 187 589 +8 805
2017/09/12 178 784 +6 410
2017/09/11 172 374 +4 924
2017/09/10 167 450 +6 375
2017/09/09 161 075 +2 612
2017/09/08 158 463 -5 448
2017/09/07 163 911 -8 676
2017/09/06 172 587 +1 388
2017/09/05 171 199 -737
2017/09/04 171 936 +1 395
2017/09/03 170 541 +2 691
2017/09/02 167 850 +3 438
2017/09/01 164 412 +1 369
2017/08/31 163 043 +178
2017/08/30 162 865 +1 975
2017/08/29 160 890 +354
2017/08/28 160 536 -633
2017/08/27 161 169 +1 214
2017/08/26 159 955 +208
2017/08/25 159 747 +49
2017/08/24 159 698 -2 744
2017/08/23 162 442 -308
2017/08/22 162 750 -2 732
2017/08/21 165 482 -387
2017/08/20 165 869 -3 996
2017/08/19 169 865 -306
2017/08/18 170 171 +3 938
2017/08/17 166 233 -7 943
2017/08/16 174 176 -4 564
2017/08/15 178 740 +3 588
2017/08/14 175 152 -5 922
2017/08/13 181 074 -2 212
2017/08/12 183 286 -2 318
2017/08/11 185 604 -5 514
2017/08/10 191 118 -5 359
2017/08/09 196 477 -2 047
2017/08/08 198 524 +8 568
2017/08/07 189 956 +993
2017/08/06 188 963 +1 965
2017/08/05 186 998 +1 156
2017/08/04 185 842 +189
2017/08/03 185 653 +210
2017/08/02 185 443 +2
2017/08/01 185 441 +755
2017/07/31 184 686 -2 016
2017/07/30 186 702 -2 518
2017/07/29 189 220 -477
2017/07/28 189 697 -2 016
2017/07/27 191 713 -1 964
2017/07/26 193 677 -90
2017/07/25 193 767 +1 748
2017/07/24 192 019 +302
2017/07/23 191 717 +2 394
2017/07/22 189 323

WIDGET FOR YOUR SITE

DOMAINS WITH THE NEAREST RANK

Domain Rank
bintangbaru.com 237 896
hr-diary.com 237 897
vikingdirect.ie 237 898
kiemhieptruyen.com 237 899
bnpmedia.com 237 900
wehoville.com 237 901
speedmm.net 237 902
pictagra.com 237 903
actmovie.ir 237 904
digi-ana.com 237 905
hgclub-movies.net 237 906

DOMAINS WITH THE NEAREST RANK BY TLD .com

Domain Rank
blackfucksex.com 237 895
bintangbaru.com 237 896
hr-diary.com 237 897
kiemhieptruyen.com 237 899
bnpmedia.com 237 900
wehoville.com 237 901
pictagra.com 237 903
digi-ana.com 237 905
sumedico.com 237 907
webtoontr.com 237 908
nodwick.com 237 909